Time;durP1;ratioP1;P1;durP2;ratioP2;P2;SDS_P1;SDS_P2;PMS_P1;PMS_P2;Temp;Humidity;BMP_temperature;BMP_pressure;BME280_temperature;BME280_humidity;BME280_pressure;Samples;Min_cycle;Max_cycle;Signal;HPM_P1;HPM_P2
2021/08/10 00:02:26;;;;;;;7.03;4.90;;;;;;;;;;751099;181;921346;-63
2021/08/10 00:04:51;;;;;;;8.40;4.10;;;;;;;;;;752966;183;918185;-63
2021/08/10 00:07:17;;;;;;;14.10;6.10;;;;;;;;;;759976;183;919187;-62
2021/08/10 00:09:43;;;;;;;5.80;4.62;;;;;;;;;;755332;184;918873;-63
2021/08/10 00:12:09;;;;;;;6.10;4.10;;;;;;;;;;755001;184;919025;-63
2021/08/10 00:14:34;;;;;;;7.67;4.20;;;;;;;;;;759477;183;919116;-62
2021/08/10 00:17:01;;;;;;;8.63;4.40;;;;;;;;;;754097;184;918382;-62
2021/08/10 00:19:27;;;;;;;8.70;4.43;;;;;;;;;;752943;184;918259;-62
2021/08/10 00:21:53;;;;;;;9.83;4.40;;;;;;;;;;758826;184;925189;-63
2021/08/10 00:24:19;;;;;;;10.37;3.80;;;;;;;;;;754003;184;915922;-62
2021/08/10 00:26:44;;;;;;;6.05;4.12;;;;;;;;;;755058;181;920767;-62
2021/08/10 00:29:10;;;;;;;6.73;4.53;;;;;;;;;;753991;185;920554;-65
2021/08/10 00:31:36;;;;;;;7.97;5.60;;;;;;;;;;759727;181;916378;-63
2021/08/10 00:34:02;;;;;;;7.40;5.70;;;;;;;;;;754827;184;918942;-62
2021/08/10 00:36:28;;;;;;;10.90;4.73;;;;;;;;;;753813;184;917662;-62
2021/08/10 00:38:54;;;;;;;7.30;4.77;;;;;;;;;;759219;184;915466;-61
2021/08/10 00:41:20;;;;;;;9.83;4.33;;;;;;;;;;753546;184;919420;-63
2021/08/10 00:43:46;;;;;;;5.30;3.67;;;;;;;;;;753497;184;920647;-63
2021/08/10 00:46:12;;;;;;;7.60;4.45;;;;;;;;;;759333;182;919007;-62
2021/08/10 00:48:37;;;;;;;6.43;4.30;;;;;;;;;;754707;184;918705;-62
2021/08/10 00:51:03;;;;;;;12.40;4.68;;;;;;;;;;753931;184;1022179;-63
2021/08/10 00:53:29;;;;;;;9.70;4.00;;;;;;;;;;755265;183;919941;-62
2021/08/10 00:55:55;;;;;;;7.83;4.70;;;;;;;;;;750465;183;918124;-62
2021/08/10 00:58:21;;;;;;;8.70;4.97;;;;;;;;;;755482;182;918696;-62
2021/08/10 01:00:47;;;;;;;8.40;4.90;;;;;;;;;;754334;183;920259;-62
2021/08/10 01:03:13;;;;;;;22.13;5.30;;;;;;;;;;759311;184;918504;-62
2021/08/10 01:05:38;;;;;;;10.20;4.23;;;;;;;;;;755839;184;919963;-62
2021/08/10 01:08:05;;;;;;;13.23;5.50;;;;;;;;;;754717;184;918650;-63
2021/08/10 01:10:31;;;;;;;12.13;5.00;;;;;;;;;;760505;183;919678;-63
2021/08/10 01:12:57;;;;;;;14.03;4.87;;;;;;;;;;755925;183;917647;-62
2021/08/10 01:15:24;;;;;;;6.50;5.10;;;;;;;;;;755266;183;917454;-62
2021/08/10 01:17:58;;;;;;;8.80;4.50;;;;;;;;;;753088;183;919184;-62
2021/08/10 01:20:24;;;;;;;5.73;4.50;;;;;;;;;;761269;181;919378;-64
2021/08/10 01:22:50;;;;;;;9.47;5.17;;;;;;;;;;753115;184;918970;-63
2021/08/10 01:25:19;;;;;;;5.60;4.23;;;;;;;;;;751935;184;1122998;-63
2021/08/10 01:27:48;;;;;;;8.53;5.30;;;;;;;;;;753948;183;917764;-63
2021/08/10 01:30:14;;;;;;;8.10;5.17;;;;;;;;;;752510;184;919382;-63
2021/08/10 01:32:40;;;;;;;8.53;5.00;;;;;;;;;;752125;184;920957;-64
2021/08/10 01:35:06;;;;;;;9.57;4.70;;;;;;;;;;753499;183;915378;-64
2021/08/10 01:37:32;;;;;;;7.43;5.40;;;;;;;;;;760053;184;916935;-63
2021/08/10 01:39:58;;;;;;;7.40;4.00;;;;;;;;;;755367;184;919559;-63
2021/08/10 01:42:24;;;;;;;17.13;5.27;;;;;;;;;;755375;184;919371;-64
2021/08/10 01:44:49;;;;;;;22.10;5.30;;;;;;;;;;758371;184;918597;-64
2021/08/10 01:47:15;;;;;;;9.07;4.17;;;;;;;;;;754698;184;919215;-63
2021/08/10 01:49:41;;;;;;;5.85;5.03;;;;;;;;;;753886;184;919734;-65
2021/08/10 01:52:07;;;;;;;8.57;5.13;;;;;;;;;;755455;184;919771;-63
2021/08/10 01:54:33;;;;;;;8.53;6.40;;;;;;;;;;758342;184;919214;-64
2021/08/10 01:56:59;;;;;;;12.27;5.33;;;;;;;;;;753997;181;919528;-63
2021/08/10 01:59:24;;;;;;;9.10;5.17;;;;;;;;;;753504;184;919576;-64
2021/08/10 02:01:50;;;;;;;8.40;5.70;;;;;;;;;;759972;184;920862;-63
2021/08/10 02:04:16;;;;;;;12.77;5.77;;;;;;;;;;759039;183;918361;-64
2021/08/10 02:06:42;;;;;;;12.23;4.97;;;;;;;;;;755095;184;1043960;-64
2021/08/10 02:09:08;;;;;;;10.17;4.90;;;;;;;;;;760538;182;919454;-63
2021/08/10 02:11:34;;;;;;;9.00;4.57;;;;;;;;;;757897;181;919407;-64
2021/08/10 02:13:59;;;;;;;14.23;5.90;;;;;;;;;;755294;183;919117;-63
2021/08/10 02:16:25;;;;;;;11.87;5.20;;;;;;;;;;753834;183;1020637;-63
2021/08/10 02:18:51;;;;;;;8.97;5.27;;;;;;;;;;755232;183;920220;-64
2021/08/10 02:21:19;;;;;;;14.73;5.50;;;;;;;;;;753715;183;919440;-63
2021/08/10 02:23:45;;;;;;;6.37;4.50;;;;;;;;;;754531;183;919075;-63
2021/08/10 02:26:10;;;;;;;9.03;4.90;;;;;;;;;;759772;182;918930;-63
2021/08/10 02:28:36;;;;;;;9.10;6.10;;;;;;;;;;756474;183;919032;-63
2021/08/10 02:31:02;;;;;;;8.40;5.90;;;;;;;;;;754930;183;1021145;-63
2021/08/10 02:33:28;;;;;;;13.60;6.37;;;;;;;;;;758431;183;919199;-63
2021/08/10 02:35:54;;;;;;;9.70;5.20;;;;;;;;;;754378;183;918985;-63
2021/08/10 02:38:20;;;;;;;7.23;5.37;;;;;;;;;;754777;183;918412;-63
2021/08/10 02:40:45;;;;;;;8.23;5.40;;;;;;;;;;753596;184;919020;-63
2021/08/10 02:43:11;;;;;;;10.25;5.85;;;;;;;;;;759732;183;920421;-62
2021/08/10 02:45:37;;;;;;;7.00;5.87;;;;;;;;;;752333;184;919621;-63
2021/08/10 02:48:03;;;;;;;8.70;5.80;;;;;;;;;;753127;184;918619;-62
2021/08/10 02:50:29;;;;;;;10.23;5.80;;;;;;;;;;760501;181;919598;-63
2021/08/10 02:52:55;;;;;;;19.23;6.07;;;;;;;;;;755523;184;919548;-64
2021/08/10 02:55:21;;;;;;;7.27;5.50;;;;;;;;;;754056;183;919619;-64
2021/08/10 02:57:50;;;;;;;11.10;4.80;;;;;;;;;;758995;184;919649;-63
2021/08/10 03:00:16;;;;;;;6.80;4.87;;;;;;;;;;753257;184;920097;-63
2021/08/10 03:02:43;;;;;;;9.60;5.12;;;;;;;;;;754347;184;919427;-64
2021/08/10 03:05:11;;;;;;;6.17;4.27;;;;;;;;;;753772;184;919211;-63
2021/08/10 03:07:36;;;;;;;6.43;5.33;;;;;;;;;;759156;182;918971;-64
2021/08/10 03:10:02;;;;;;;7.17;5.27;;;;;;;;;;753502;184;920641;-64
2021/08/10 03:12:28;;;;;;;9.60;5.63;;;;;;;;;;753623;184;920432;-63
2021/08/10 03:14:54;;;;;;;7.13;4.77;;;;;;;;;;759415;184;917818;-63
2021/08/10 03:17:20;;;;;;;14.13;5.17;;;;;;;;;;758447;183;920083;-64
2021/08/10 03:19:46;;;;;;;6.47;4.60;;;;;;;;;;756401;181;919131;-64
2021/08/10 03:22:11;;;;;;;9.73;4.70;;;;;;;;;;760832;183;919133;-63
2021/08/10 03:24:37;;;;;;;5.33;3.90;;;;;;;;;;757169;183;933111;-63
2021/08/10 03:27:05;;;;;;;6.43;4.70;;;;;;;;;;755942;183;921644;-63
2021/08/10 03:29:29;;;;;;;4.80;4.00;;;;;;;;;;755837;182;919147;-63
2021/08/10 03:31:55;;;;;;;6.60;4.30;;;;;;;;;;759165;183;919489;-63
2021/08/10 03:34:21;;;;;;;6.73;4.40;;;;;;;;;;753608;183;919295;-64
2021/08/10 03:36:48;;;;;;;6.20;4.20;;;;;;;;;;753606;184;918987;-64
2021/08/10 03:39:13;;;;;;;4.60;3.90;;;;;;;;;;759742;183;919322;-63
2021/08/10 03:41:38;;;;;;;10.13;4.37;;;;;;;;;;756574;183;919425;-64
2021/08/10 03:44:04;;;;;;;14.57;5.20;;;;;;;;;;756335;182;919712;-62
2021/08/10 03:46:30;;;;;;;30.13;6.17;;;;;;;;;;758548;183;1003123;-64
2021/08/10 03:48:56;;;;;;;10.33;3.90;;;;;;;;;;755622;183;921826;-63
2021/08/10 03:51:22;;;;;;;6.47;4.23;;;;;;;;;;756031;184;918268;-64
2021/08/10 03:53:48;;;;;;;10.00;4.00;;;;;;;;;;753416;184;919072;-63
2021/08/10 03:56:14;;;;;;;5.30;3.80;;;;;;;;;;754532;184;918988;-63
2021/08/10 03:58:39;;;;;;;8.13;3.20;;;;;;;;;;754132;184;918760;-64
2021/08/10 04:01:05;;;;;;;4.80;3.03;;;;;;;;;;755056;184;919151;-64
2021/08/10 04:03:31;;;;;;;6.37;3.40;;;;;;;;;;760315;183;918032;-63
2021/08/10 04:05:58;;;;;;;4.47;3.90;;;;;;;;;;756369;184;919896;-64
2021/08/10 04:08:24;;;;;;;19.83;4.23;;;;;;;;;;753479;184;920499;-64
2021/08/10 04:10:50;;;;;;;8.10;3.95;;;;;;;;;;759422;184;918770;-63
2021/08/10 04:13:15;;;;;;;7.33;4.60;;;;;;;;;;753923;184;919972;-63
2021/08/10 04:15:42;;;;;;;9.87;4.80;;;;;;;;;;755294;184;919670;-64
2021/08/10 04:18:08;;;;;;;11.83;4.27;;;;;;;;;;756478;184;918538;-63
2021/08/10 04:20:34;;;;;;;13.13;4.33;;;;;;;;;;754694;184;917719;-63
2021/08/10 04:22:59;;;;;;;6.40;4.10;;;;;;;;;;752709;184;1024055;-63
2021/08/10 04:25:26;;;;;;;9.43;4.00;;;;;;;;;;754408;184;1015042;-63
2021/08/10 04:27:52;;;;;;;8.23;3.70;;;;;;;;;;763245;182;913798;-64
2021/08/10 04:30:18;;;;;;;5.20;3.93;;;;;;;;;;757144;183;918952;-64
2021/08/10 04:32:43;;;;;;;8.53;7.07;;;;;;;;;;757242;181;918453;-63
2021/08/10 04:35:09;;;;;;;8.93;4.43;;;;;;;;;;759355;184;917724;-63
2021/08/10 04:37:35;;;;;;;5.83;5.10;;;;;;;;;;755531;184;919340;-64
2021/08/10 04:40:01;;;;;;;13.20;5.63;;;;;;;;;;754778;183;919913;-63
2021/08/10 04:42:27;;;;;;;7.90;5.00;;;;;;;;;;759500;184;918776;-62
2021/08/10 04:44:53;;;;;;;7.10;5.40;;;;;;;;;;763536;179;919215;-64
2021/08/10 04:47:19;;;;;;;9.17;5.83;;;;;;;;;;754615;183;920469;-64
2021/08/10 04:49:45;;;;;;;8.90;6.07;;;;;;;;;;755170;183;918906;-63
2021/08/10 04:52:11;;;;;;;13.23;6.77;;;;;;;;;;760211;183;920055;-63
2021/08/10 04:54:37;;;;;;;8.90;6.60;;;;;;;;;;755171;181;924472;-63
2021/08/10 04:57:03;;;;;;;14.17;9.17;;;;;;;;;;755536;181;917655;-63
2021/08/10 04:59:28;;;;;;;15.90;8.60;;;;;;;;;;759421;183;918399;-63
2021/08/10 05:01:54;;;;;;;13.00;9.37;;;;;;;;;;755292;183;919067;-63
2021/08/10 05:04:20;;;;;;;15.20;10.10;;;;;;;;;;748526;184;2145300;-65
2021/08/10 05:06:46;;;;;;;12.87;9.63;;;;;;;;;;759526;184;921883;-63
2021/08/10 05:09:12;;;;;;;15.40;9.77;;;;;;;;;;753781;183;919080;-64
2021/08/10 05:11:38;;;;;;;14.60;10.30;;;;;;;;;;753044;184;918667;-63
2021/08/10 05:14:03;;;;;;;14.07;9.47;;;;;;;;;;753230;181;919401;-62
2021/08/10 05:16:29;;;;;;;16.53;10.80;;;;;;;;;;760723;184;919923;-62
2021/08/10 05:18:55;;;;;;;24.33;10.30;;;;;;;;;;755235;184;918901;-62
2021/08/10 05:21:21;;;;;;;12.80;9.93;;;;;;;;;;753668;184;919384;-63
2021/08/10 05:23:47;;;;;;;13.63;9.97;;;;;;;;;;763221;184;919423;-64
2021/08/10 05:26:13;;;;;;;14.07;9.10;;;;;;;;;;754448;184;919536;-66
2021/08/10 05:28:38;;;;;;;12.55;8.02;;;;;;;;;;756481;184;928536;-63
2021/08/10 05:31:04;;;;;;;11.03;7.13;;;;;;;;;;761106;184;622171;-63
2021/08/10 05:33:30;;;;;;;11.80;6.60;;;;;;;;;;757282;184;630443;-63
2021/08/10 05:35:56;;;;;;;9.50;7.90;;;;;;;;;;755449;184;919348;-64
2021/08/10 05:38:22;;;;;;;12.30;7.50;;;;;;;;;;757828;184;918719;-63
2021/08/10 05:40:48;;;;;;;8.77;6.30;;;;;;;;;;764357;181;919409;-64
2021/08/10 05:43:13;;;;;;;9.70;6.60;;;;;;;;;;757186;184;919021;-63
2021/08/10 05:45:39;;;;;;;9.03;6.23;;;;;;;;;;756036;184;917764;-63
2021/08/10 05:48:06;;;;;;;22.60;6.83;;;;;;;;;;761726;183;918545;-63
2021/08/10 05:50:31;;;;;;;6.83;5.63;;;;;;;;;;755536;183;917877;-62
2021/08/10 05:52:57;;;;;;;7.70;5.27;;;;;;;;;;755023;183;918835;-63
2021/08/10 05:55:23;;;;;;;7.62;5.53;;;;;;;;;;760175;183;919268;-63
2021/08/10 05:57:49;;;;;;;10.47;6.43;;;;;;;;;;756804;184;916523;-62
2021/08/10 06:00:15;;;;;;;10.60;5.70;;;;;;;;;;756684;183;916153;-63
2021/08/10 06:02:41;;;;;;;6.23;5.00;;;;;;;;;;759384;181;915303;-62
2021/08/10 06:05:07;;;;;;;6.87;4.80;;;;;;;;;;753307;183;916091;-64
2021/08/10 06:07:33;;;;;;;6.87;4.70;;;;;;;;;;754169;183;919219;-62
2021/08/10 06:09:58;;;;;;;7.03;4.67;;;;;;;;;;754356;183;919399;-63
2021/08/10 06:12:24;;;;;;;9.07;4.53;;;;;;;;;;760276;183;919634;-63
2021/08/10 06:14:50;;;;;;;6.07;4.60;;;;;;;;;;754589;183;919803;-64
2021/08/10 06:17:16;;;;;;;4.90;3.80;;;;;;;;;;756575;184;918317;-63
2021/08/10 06:19:42;;;;;;;4.83;3.70;;;;;;;;;;759120;184;918800;-63
2021/08/10 06:22:08;;;;;;;6.90;5.40;;;;;;;;;;754203;182;919129;-63
2021/08/10 06:24:33;;;;;;;7.53;3.83;;;;;;;;;;754025;184;920209;-64
2021/08/10 06:26:59;;;;;;;7.80;4.50;;;;;;;;;;759541;184;918331;-64
2021/08/10 06:29:25;;;;;;;6.83;4.10;;;;;;;;;;752430;184;918729;-64
2021/08/10 06:31:51;;;;;;;5.27;3.80;;;;;;;;;;753910;183;921235;-63
2021/08/10 06:34:17;;;;;;;7.27;4.27;;;;;;;;;;754201;184;918839;-63
2021/08/10 06:36:43;;;;;;;8.60;3.57;;;;;;;;;;758353;183;918288;-63
2021/08/10 06:39:09;;;;;;;8.30;3.60;;;;;;;;;;757963;184;918578;-63
2021/08/10 06:41:34;;;;;;;5.90;3.60;;;;;;;;;;754336;184;910868;-64
2021/08/10 06:44:00;;;;;;;6.23;3.70;;;;;;;;;;760126;184;934041;-63
2021/08/10 06:46:26;;;;;;;4.60;3.60;;;;;;;;;;753890;184;928414;-64
2021/08/10 06:48:52;;;;;;;6.13;3.40;;;;;;;;;;754136;182;919626;-63
2021/08/10 06:51:18;;;;;;;8.80;3.57;;;;;;;;;;760449;183;947075;-63
2021/08/10 06:53:44;;;;;;;5.13;3.60;;;;;;;;;;756508;183;919114;-64
2021/08/10 06:56:10;;;;;;;7.37;3.40;;;;;;;;;;756375;181;918362;-64
2021/08/10 06:58:35;;;;;;;5.20;3.30;;;;;;;;;;757144;183;921502;-64
2021/08/10 07:01:01;;;;;;;6.23;3.13;;;;;;;;;;756468;184;648882;-63
2021/08/10 07:03:27;;;;;;;3.60;2.87;;;;;;;;;;757784;184;845540;-64
2021/08/10 07:05:53;;;;;;;6.43;3.10;;;;;;;;;;758412;183;723684;-65
2021/08/10 07:08:19;;;;;;;3.77;3.10;;;;;;;;;;762647;183;920335;-64
2021/08/10 07:10:45;;;;;;;9.67;2.53;;;;;;;;;;755508;181;915538;-62
2021/08/10 07:13:11;;;;;;;8.03;3.07;;;;;;;;;;754488;183;908607;-63
2021/08/10 07:15:37;;;;;;;4.80;3.10;;;;;;;;;;759632;183;919459;-64
2021/08/10 07:18:02;;;;;;;6.90;3.23;;;;;;;;;;753420;183;1117602;-63
2021/08/10 07:20:28;;;;;;;5.93;3.28;;;;;;;;;;753153;183;1123802;-64
2021/08/10 07:22:54;;;;;;;8.73;3.13;;;;;;;;;;763158;184;664765;-63
2021/08/10 07:25:21;;;;;;;3.87;3.10;;;;;;;;;;757908;183;658092;-64
2021/08/10 07:27:46;;;;;;;4.73;2.70;;;;;;;;;;755943;184;812442;-63
2021/08/10 07:30:12;;;;;;;5.23;2.70;;;;;;;;;;749617;183;1638686;-64
2021/08/10 07:32:38;;;;;;;3.45;2.80;;;;;;;;;;760015;184;926602;-64
2021/08/10 07:35:04;;;;;;;5.90;3.27;;;;;;;;;;754941;184;920470;-66
2021/08/10 07:37:30;;;;;;;6.83;2.77;;;;;;;;;;755635;184;920443;-63
2021/08/10 07:39:56;;;;;;;3.20;2.70;;;;;;;;;;758743;182;944975;-61
2021/08/10 07:42:22;;;;;;;4.20;2.53;;;;;;;;;;754456;184;988913;-64
2021/08/10 07:44:48;;;;;;;3.92;2.40;;;;;;;;;;755537;184;1024034;-64
2021/08/10 07:47:13;;;;;;;3.90;2.70;;;;;;;;;;760456;184;779877;-65
2021/08/10 07:49:41;;;;;;;4.80;2.60;;;;;;;;;;757978;182;633601;-64
2021/08/10 07:52:07;;;;;;;4.63;2.43;;;;;;;;;;756163;184;911660;-64
2021/08/10 07:54:33;;;;;;;5.30;2.87;;;;;;;;;;752470;183;911980;-64
2021/08/10 07:57:00;;;;;;;4.60;2.90;;;;;;;;;;759292;184;911406;-65
2021/08/10 07:59:24;;;;;;;4.87;3.00;;;;;;;;;;755115;181;1027055;-65
2021/08/10 08:01:50;;;;;;;5.77;3.20;;;;;;;;;;757269;183;915380;-65
2021/08/10 08:04:16;;;;;;;4.93;3.00;;;;;;;;;;765698;183;919889;-64
2021/08/10 08:06:42;;;;;;;4.43;2.13;;;;;;;;;;756546;183;910134;-65
2021/08/10 08:09:08;;;;;;;3.73;2.50;;;;;;;;;;755153;183;919482;-65
2021/08/10 08:11:33;;;;;;;3.37;2.63;;;;;;;;;;759500;181;918499;-65
2021/08/10 08:13:59;;;;;;;5.00;2.90;;;;;;;;;;753464;183;918944;-66
2021/08/10 08:16:25;;;;;;;4.67;2.60;;;;;;;;;;754639;183;918395;-65
2021/08/10 08:18:51;;;;;;;7.40;3.20;;;;;;;;;;753766;183;918353;-64
2021/08/10 08:21:17;;;;;;;3.50;2.70;;;;;;;;;;759040;181;918891;-65
2021/08/10 08:23:43;;;;;;;4.60;2.43;;;;;;;;;;754425;183;920403;-65
2021/08/10 08:26:08;;;;;;;5.90;2.97;;;;;;;;;;753662;183;921971;-66
2021/08/10 08:28:34;;;;;;;3.17;2.27;;;;;;;;;;762056;183;658493;-68
2021/08/10 08:31:01;;;;;;;4.80;2.67;;;;;;;;;;755464;183;919993;-66
2021/08/10 08:33:26;;;;;;;5.03;2.60;;;;;;;;;;753917;183;918795;-66
2021/08/10 08:35:52;;;;;;;4.83;2.77;;;;;;;;;;759821;181;918899;-65
2021/08/10 08:38:19;;;;;;;6.50;3.07;;;;;;;;;;756838;184;919276;-64
2021/08/10 08:40:44;;;;;;;3.90;2.77;;;;;;;;;;754073;184;943741;-66
2021/08/10 08:43:10;;;;;;;4.77;2.57;;;;;;;;;;756463;184;919197;-65
2021/08/10 08:45:35;;;;;;;5.30;2.90;;;;;;;;;;757827;181;920912;-67
2021/08/10 08:48:02;;;;;;;4.93;2.70;;;;;;;;;;754178;184;918994;-65
2021/08/10 08:50:30;;;;;;;3.93;3.03;;;;;;;;;;755897;184;917718;-65
2021/08/10 08:52:54;;;;;;;3.20;2.50;;;;;;;;;;760870;184;919236;-66
2021/08/10 08:55:20;;;;;;;5.77;2.90;;;;;;;;;;753917;184;918670;-65
2021/08/10 08:57:45;;;;;;;3.27;2.70;;;;;;;;;;755979;184;920975;-66
2021/08/10 09:00:12;;;;;;;4.90;2.57;;;;;;;;;;758951;184;917807;-66
2021/08/10 09:02:38;;;;;;;6.77;2.40;;;;;;;;;;756902;184;919538;-65
2021/08/10 09:05:04;;;;;;;6.90;3.07;;;;;;;;;;755339;181;976932;-65
2021/08/10 09:07:30;;;;;;;4.47;3.27;;;;;;;;;;756553;184;918141;-66
2021/08/10 09:10:01;;;;;;;3.70;2.33;;;;;;;;;;755333;183;920110;-68
2021/08/10 09:12:27;;;;;;;5.10;2.40;;;;;;;;;;753228;183;918972;-66
2021/08/10 09:14:53;;;;;;;2.77;2.20;;;;;;;;;;758747;182;918773;-66
2021/08/10 09:17:20;;;;;;;3.40;2.50;;;;;;;;;;761352;183;918833;-65
2021/08/10 09:19:52;;;;;;;5.63;2.50;;;;;;;;;;757601;183;919048;-65
2021/08/10 09:22:17;;;;;;;4.60;3.00;;;;;;;;;;755167;183;921286;-66
2021/08/10 09:24:43;;;;;;;4.97;2.60;;;;;;;;;;753934;183;914846;-65
2021/08/10 09:27:15;;;;;;;3.83;2.63;;;;;;;;;;760951;181;915911;-66
2021/08/10 09:29:44;;;;;;;5.53;2.10;;;;;;;;;;755955;183;916713;-66
2021/08/10 09:32:10;;;;;;;4.37;2.53;;;;;;;;;;755233;181;915657;-68
2021/08/10 09:34:35;;;;;;;4.30;2.53;;;;;;;;;;755039;183;920094;-66
2021/08/10 09:37:01;;;;;;;5.10;2.60;;;;;;;;;;759058;183;908660;-67
2021/08/10 09:39:27;;;;;;;31.83;4.50;;;;;;;;;;754228;183;915206;-68
2021/08/10 09:41:59;;;;;;;4.20;2.53;;;;;;;;;;752865;183;1022160;-66
2021/08/10 09:44:25;;;;;;;4.50;3.00;;;;;;;;;;760934;181;916267;-67
2021/08/10 09:46:53;;;;;;;4.87;2.80;;;;;;;;;;754071;183;915644;-66
2021/08/10 09:49:17;;;;;;;5.30;2.50;;;;;;;;;;754276;184;919910;-66
2021/08/10 09:51:43;;;;;;;4.33;2.33;;;;;;;;;;753243;184;948375;-65
2021/08/10 09:54:12;;;;;;;6.50;2.50;;;;;;;;;;760142;182;918939;-67
2021/08/10 09:56:45;;;;;;;3.10;2.17;;;;;;;;;;755148;182;931344;-67
2021/08/10 09:59:07;;;;;;;4.30;2.57;;;;;;;;;;754142;184;918800;-66
2021/08/10 10:01:34;;;;;;;7.03;3.17;;;;;;;;;;758328;184;919244;-67
2021/08/10 10:04:05;;;;;;;7.37;3.10;;;;;;;;;;755550;184;917975;-67
2021/08/10 10:06:32;;;;;;;4.30;2.83;;;;;;;;;;753643;183;918904;-68
2021/08/10 10:08:57;;;;;;;4.10;2.63;;;;;;;;;;754798;184;925705;-67
2021/08/10 10:11:23;;;;;;;6.07;2.93;;;;;;;;;;759229;184;921263;-66
2021/08/10 10:13:49;;;;;;;3.87;2.83;;;;;;;;;;758641;181;918308;-69
2021/08/10 10:16:15;;;;;;;4.50;2.87;;;;;;;;;;755080;184;918536;-65
2021/08/10 10:18:40;;;;;;;5.20;3.30;;;;;;;;;;758547;184;1103737;-66
2021/08/10 10:21:06;;;;;;;5.80;3.37;;;;;;;;;;755718;184;920424;-67
2021/08/10 10:23:32;;;;;;;3.57;2.37;;;;;;;;;;755151;184;921370;-67
2021/08/10 10:25:58;;;;;;;3.97;3.00;;;;;;;;;;754625;182;919269;-68
2021/08/10 10:28:24;;;;;;;4.93;3.20;;;;;;;;;;758599;184;619714;-67
2021/08/10 10:30:50;;;;;;;5.53;3.10;;;;;;;;;;758950;183;652116;-67
2021/08/10 10:33:15;;;;;;;6.47;2.85;;;;;;;;;;757576;183;916288;-67
2021/08/10 10:35:41;;;;;;;4.53;3.07;;;;;;;;;;762135;184;919904;-68
2021/08/10 10:38:07;;;;;;;4.10;3.40;;;;;;;;;;758262;183;918822;-67
2021/08/10 10:40:33;;;;;;;3.17;2.30;;;;;;;;;;754856;183;920181;-68
2021/08/10 10:42:59;;;;;;;3.33;2.80;;;;;;;;;;760296;183;923029;-67
2021/08/10 10:45:31;;;;;;;4.40;3.33;;;;;;;;;;755388;183;920313;-67
2021/08/10 10:47:56;;;;;;;23.37;3.70;;;;;;;;;;755076;183;920203;-67
2021/08/10 10:50:22;;;;;;;6.57;3.30;;;;;;;;;;754111;181;919716;-67
2021/08/10 10:52:54;;;;;;;3.50;2.97;;;;;;;;;;760740;183;918430;-67
2021/08/10 10:55:20;;;;;;;8.13;3.33;;;;;;;;;;752953;183;919184;-65
2021/08/10 10:57:46;;;;;;;3.63;2.77;;;;;;;;;;752852;184;919080;-65
2021/08/10 11:00:20;;;;;;;4.00;2.70;;;;;;;;;;754303;183;917985;-65
2021/08/10 11:02:45;;;;;;;3.60;2.67;;;;;;;;;;762780;178;916604;-68
2021/08/10 11:05:27;;;;;;;3.03;2.43;;;;;;;;;;753215;184;919806;-66
2021/08/10 11:07:54;;;;;;;5.03;2.47;;;;;;;;;;753846;184;916347;-64
2021/08/10 11:10:36;;;;;;;7.27;3.23;;;;;;;;;;754312;181;918428;-66
2021/08/10 11:13:04;;;;;;;5.83;3.03;;;;;;;;;;752874;184;916776;-64
2021/08/10 11:15:34;;;;;;;4.80;3.50;;;;;;;;;;759347;181;916255;-65
2021/08/10 11:18:06;;;;;;;4.20;2.97;;;;;;;;;;758238;184;919315;-66
2021/08/10 11:20:31;;;;;;;4.70;3.00;;;;;;;;;;752319;184;915270;-66
2021/08/10 11:23:03;;;;;;;5.63;3.17;;;;;;;;;;753295;184;918733;-66
2021/08/10 11:25:29;;;;;;;4.10;3.10;;;;;;;;;;756137;183;918444;-66
2021/08/10 11:27:55;;;;;;;4.40;3.03;;;;;;;;;;758567;184;918024;-66
2021/08/10 11:30:35;;;;;;;7.80;3.00;;;;;;;;;;755355;184;919177;-67
2021/08/10 11:33:01;;;;;;;4.50;3.50;;;;;;;;;;749167;184;919250;-69
2021/08/10 11:35:28;;;;;;;4.50;2.40;;;;;;;;;;753862;181;918788;-68
2021/08/10 11:38:00;;;;;;;4.77;3.10;;;;;;;;;;761897;183;921580;-64
2021/08/10 11:40:28;;;;;;;6.90;3.10;;;;;;;;;;758336;183;918213;-67
2021/08/10 11:42:51;;;;;;;6.07;3.57;;;;;;;;;;756466;181;930274;-68
2021/08/10 11:45:17;;;;;;;4.77;2.80;;;;;;;;;;753757;184;919059;-67
2021/08/10 11:47:43;;;;;;;5.73;3.10;;;;;;;;;;751406;184;919021;-67
2021/08/10 11:50:09;;;;;;;4.90;3.20;;;;;;;;;;753590;181;919115;-67
2021/08/10 11:52:40;;;;;;;3.93;2.70;;;;;;;;;;753960;183;918683;-67
2021/08/10 11:55:06;;;;;;;5.27;3.17;;;;;;;;;;759897;183;918678;-68
2021/08/10 11:57:32;;;;;;;4.30;2.67;;;;;;;;;;754873;183;918724;-66
2021/08/10 12:00:03;;;;;;;3.30;2.50;;;;;;;;;;754427;183;919741;-69
2021/08/10 12:02:29;;;;;;;3.87;2.90;;;;;;;;;;753900;183;927518;-67
2021/08/10 12:04:55;;;;;;;4.20;2.20;;;;;;;;;;759601;183;918164;-67
2021/08/10 12:07:21;;;;;;;3.67;2.80;;;;;;;;;;754712;183;920171;-64
2021/08/10 12:09:47;;;;;;;4.07;2.20;;;;;;;;;;755305;183;919208;-66
2021/08/10 12:12:14;;;;;;;3.33;2.70;;;;;;;;;;759861;183;919492;-66
2021/08/10 12:14:38;;;;;;;4.67;2.63;;;;;;;;;;753878;181;918997;-67
2021/08/10 12:17:06;;;;;;;6.20;2.67;;;;;;;;;;753175;184;920278;-68
2021/08/10 12:19:33;;;;;;;4.23;2.77;;;;;;;;;;753110;184;918829;-66
2021/08/10 12:21:59;;;;;;;8.17;3.30;;;;;;;;;;760956;182;922904;-67
2021/08/10 12:24:27;;;;;;;4.93;2.40;;;;;;;;;;752714;184;918887;-67
2021/08/10 12:26:53;;;;;;;5.27;3.10;;;;;;;;;;755819;183;918660;-68
2021/08/10 12:29:19;;;;;;;3.80;2.73;;;;;;;;;;759627;184;919645;-63
2021/08/10 12:31:44;;;;;;;5.20;2.73;;;;;;;;;;755788;184;919638;-67
2021/08/10 12:34:10;;;;;;;5.50;4.40;;;;;;;;;;753301;184;918872;-67
2021/08/10 12:36:51;;;;;;;5.07;3.00;;;;;;;;;;758786;184;918744;-67
2021/08/10 12:39:17;;;;;;;5.43;2.70;;;;;;;;;;755354;184;919069;-66
2021/08/10 12:41:43;;;;;;;3.30;2.20;;;;;;;;;;753871;184;919847;-65
2021/08/10 12:44:10;;;;;;;4.20;3.13;;;;;;;;;;753651;184;919130;-67
2021/08/10 12:46:35;;;;;;;4.13;2.67;;;;;;;;;;753051;183;918557;-66
2021/08/10 12:49:04;;;;;;;5.40;3.63;;;;;;;;;;754685;182;917883;-67
2021/08/10 12:51:36;;;;;;;3.93;2.90;;;;;;;;;;757177;183;919016;-67
2021/08/10 12:54:08;;;;;;;8.00;3.40;;;;;;;;;;754279;183;919470;-68
2021/08/10 12:56:34;;;;;;;5.77;2.93;;;;;;;;;;754346;183;918971;-68
2021/08/10 12:58:59;;;;;;;5.33;2.63;;;;;;;;;;760417;183;942993;-65
2021/08/10 13:01:25;;;;;;;3.93;2.60;;;;;;;;;;756532;183;919352;-67
2021/08/10 13:03:51;;;;;;;4.77;2.90;;;;;;;;;;755469;183;918739;-65
2021/08/10 13:06:23;;;;;;;4.80;3.17;;;;;;;;;;759374;183;919022;-67
2021/08/10 13:08:53;;;;;;;3.80;3.00;;;;;;;;;;748983;183;920362;-66
2021/08/10 13:11:19;;;;;;;7.00;2.60;;;;;;;;;;753655;183;920403;-68
2021/08/10 13:13:45;;;;;;;3.90;2.60;;;;;;;;;;753893;183;918187;-68
2021/08/10 13:16:11;;;;;;;3.60;3.10;;;;;;;;;;759105;183;917932;-69
2021/08/10 13:18:37;;;;;;;3.20;2.30;;;;;;;;;;754551;183;921310;-69
2021/08/10 13:21:02;;;;;;;5.00;2.90;;;;;;;;;;755782;183;919233;-67
2021/08/10 13:23:28;;;;;;;4.37;3.13;;;;;;;;;;759152;183;920507;-67
2021/08/10 13:25:55;;;;;;;4.30;2.63;;;;;;;;;;756097;184;917499;-67
2021/08/10 13:28:20;;;;;;;5.13;2.77;;;;;;;;;;754819;182;922663;-67
2021/08/10 13:30:46;;;;;;;3.90;2.70;;;;;;;;;;753746;183;924419;-68
2021/08/10 13:33:15;;;;;;;5.20;2.93;;;;;;;;;;754758;184;914078;-67
2021/08/10 13:35:39;;;;;;;7.27;3.00;;;;;;;;;;754415;184;920872;-67
2021/08/10 13:38:05;;;;;;;4.93;3.07;;;;;;;;;;752905;184;919119;-65
2021/08/10 13:40:32;;;;;;;7.27;3.00;;;;;;;;;;758220;184;920763;-67
2021/08/10 13:42:58;;;;;;;7.70;2.97;;;;;;;;;;754366;184;919857;-67
2021/08/10 13:45:24;;;;;;;5.12;2.87;;;;;;;;;;756917;181;919027;-65
2021/08/10 13:47:50;;;;;;;7.33;3.10;;;;;;;;;;759070;183;922390;-68
2021/08/10 13:50:15;;;;;;;4.63;3.37;;;;;;;;;;754666;184;964045;-69
2021/08/10 13:52:41;;;;;;;9.87;3.10;;;;;;;;;;756876;184;919034;-67
2021/08/10 13:55:07;;;;;;;6.23;2.77;;;;;;;;;;753793;181;918359;-66
2021/08/10 13:57:33;;;;;;;4.63;2.87;;;;;;;;;;761908;181;917152;-69
2021/08/10 13:59:59;;;;;;;5.07;2.80;;;;;;;;;;754144;183;910409;-67
2021/08/10 14:02:24;;;;;;;5.33;3.33;;;;;;;;;;756480;183;915724;-69
2021/08/10 14:04:50;;;;;;;5.67;2.70;;;;;;;;;;761591;183;913920;-66
2021/08/10 14:07:18;;;;;;;6.40;3.00;;;;;;;;;;755378;183;913543;-67
2021/08/10 14:09:42;;;;;;;4.30;2.83;;;;;;;;;;758801;183;912603;-68
2021/08/10 14:12:08;;;;;;;3.57;2.80;;;;;;;;;;761016;183;911053;-67
2021/08/10 14:14:34;;;;;;;4.73;3.07;;;;;;;;;;755905;181;911607;-70
2021/08/10 14:17:00;;;;;;;7.70;3.17;;;;;;;;;;756016;183;971097;-68
2021/08/10 14:19:26;;;;;;;4.62;3.03;;;;;;;;;;756342;183;918324;-65
2021/08/10 14:21:52;;;;;;;5.17;2.60;;;;;;;;;;755427;184;920239;-67